createdAt,value
2018-04-18T00:01:15.990Z,15.10
2018-04-18T00:03:43.511Z,15.00
2018-04-18T00:06:10.986Z,15.00
2018-04-18T00:08:38.480Z,15.00
2018-04-18T00:11:06.747Z,15.00
2018-04-18T00:13:35.058Z,15.00
2018-04-18T00:16:02.577Z,14.90
2018-04-18T00:18:30.111Z,15.00
2018-04-18T00:20:57.610Z,14.90
2018-04-18T00:23:25.912Z,14.90
2018-04-18T00:25:53.407Z,14.90
2018-04-18T00:28:20.915Z,14.90
2018-04-18T00:30:48.398Z,14.90
2018-04-18T00:33:15.874Z,14.90
2018-04-18T00:35:43.360Z,14.80
2018-04-18T00:38:11.610Z,14.80
2018-04-18T00:40:39.084Z,14.80
2018-04-18T00:43:06.573Z,14.80
2018-04-18T00:45:34.043Z,14.80
2018-04-18T00:48:01.529Z,14.60
2018-04-18T00:50:28.998Z,14.50
2018-04-18T00:52:56.586Z,14.50
2018-04-18T00:55:25.609Z,14.50
2018-04-18T00:57:53.096Z,14.40
2018-04-18T01:00:20.595Z,14.50
2018-04-18T01:02:48.884Z,14.40
2018-04-18T01:05:17.110Z,14.40
2018-04-18T01:07:44.604Z,14.30
2018-04-18T01:10:12.867Z,14.40
2018-04-18T01:12:40.368Z,14.40
2018-04-18T01:15:07.837Z,14.40
2018-04-18T01:17:35.335Z,14.40
2018-04-18T01:20:02.810Z,14.30
2018-04-18T01:22:31.065Z,14.30
2018-04-18T01:24:59.365Z,14.30
2018-04-18T01:27:27.610Z,14.30
2018-04-18T01:29:55.102Z,14.30
2018-04-18T01:32:23.345Z,14.20
2018-04-18T01:34:50.834Z,14.20
2018-04-18T01:37:19.073Z,14.20
2018-04-18T01:39:46.597Z,14.20
2018-04-18T01:42:14.092Z,14.10
2018-04-18T01:44:41.582Z,14.10
2018-04-18T01:47:09.827Z,14.00
2018-04-18T01:49:37.306Z,14.00
2018-04-18T01:52:05.587Z,14.00
2018-04-18T01:54:33.872Z,14.00
2018-04-18T01:57:02.116Z,13.90
2018-04-18T01:59:29.712Z,13.90
2018-04-18T02:01:58.005Z,13.80
2018-04-18T02:04:25.605Z,13.80
2018-04-18T02:06:53.040Z,13.80
2018-04-18T02:09:20.561Z,13.80
2018-04-18T02:11:48.808Z,13.70
2018-04-18T02:14:16.377Z,13.70
2018-04-18T02:16:43.854Z,13.70
2018-04-18T02:19:12.120Z,13.60
2018-04-18T02:21:40.421Z,13.60
2018-04-18T02:24:07.938Z,13.60
2018-04-18T02:26:35.392Z,13.50
2018-04-18T02:29:02.884Z,13.50
2018-04-18T02:31:30.355Z,13.50
2018-04-18T02:33:57.863Z,13.40
2018-04-18T02:36:25.320Z,13.40
2018-04-18T02:38:52.817Z,13.30
2018-04-18T02:41:20.421Z,13.30
2018-04-18T02:43:47.944Z,13.20
2018-04-18T02:46:15.507Z,13.00
2018-04-18T02:48:43.000Z,13.00
2018-04-18T02:51:10.475Z,13.00
2018-04-18T02:53:38.046Z,12.90
2018-04-18T02:56:06.289Z,13.00
2018-04-18T02:58:33.781Z,13.00
2018-04-18T03:01:02.036Z,13.00
2018-04-18T03:03:29.523Z,13.00
2018-04-18T03:05:57.768Z,12.90
2018-04-18T03:08:26.051Z,12.80
2018-04-18T03:10:53.661Z,12.90
2018-04-18T03:13:21.180Z,12.90
2018-04-18T03:15:49.420Z,12.90
2018-04-18T03:18:16.911Z,12.90
2018-04-18T03:20:45.143Z,12.90
2018-04-18T03:23:12.642Z,12.80
2018-04-18T03:25:40.888Z,12.80
2018-04-18T03:28:08.504Z,12.70
2018-04-18T03:30:36.043Z,12.80
2018-04-18T03:33:04.301Z,12.60
2018-04-18T03:35:31.781Z,12.60
2018-04-18T03:38:00.018Z,12.70
2018-04-18T03:40:27.526Z,12.70
2018-04-18T03:42:55.003Z,12.70
2018-04-18T03:45:22.511Z,12.70
2018-04-18T03:47:49.983Z,12.60
2018-04-18T03:50:18.255Z,12.50
2018-04-18T03:52:46.490Z,12.40
2018-04-18T03:55:14.001Z,12.40
2018-04-18T03:57:42.236Z,12.40
2018-04-18T04:00:09.820Z,12.40
2018-04-18T04:02:38.051Z,12.40
2018-04-18T04:05:05.536Z,12.40
2018-04-18T04:07:34.556Z,12.40
2018-04-18T04:10:02.814Z,12.40
2018-04-18T04:12:31.084Z,12.40
2018-04-18T04:14:58.611Z,12.40
2018-04-18T04:20:37.587Z,12.30
2018-04-18T04:23:17.516Z,12.30
2018-04-18T04:25:45.019Z,12.30
2018-04-18T04:28:13.255Z,12.30
2018-04-18T04:30:40.755Z,12.30
2018-04-18T04:33:09.005Z,12.30
2018-04-18T04:35:36.515Z,12.20
2018-04-18T04:38:04.000Z,12.20
2018-04-18T04:40:31.534Z,12.10
2018-04-18T04:42:59.091Z,12.20
2018-04-18T04:45:26.608Z,12.20
2018-04-18T04:47:54.851Z,12.20
2018-04-18T04:50:22.351Z,12.20
2018-04-18T04:52:50.588Z,12.30
2018-04-18T04:55:18.097Z,12.30
2018-04-18T04:57:45.591Z,12.30
2018-04-18T05:00:13.097Z,12.20
2018-04-18T05:02:41.343Z,12.10
2018-04-18T05:05:08.828Z,12.10
2018-04-18T05:07:37.901Z,12.20
2018-04-18T05:10:05.432Z,12.10
2018-04-18T05:12:32.903Z,12.20
2018-04-18T05:15:00.437Z,12.10
2018-04-18T05:17:27.908Z,12.20
2018-04-18T05:19:55.407Z,11.90
2018-04-18T05:22:24.567Z,11.80
2018-04-18T05:24:52.073Z,11.80
2018-04-18T05:27:20.313Z,11.70
2018-04-18T05:29:47.833Z,11.70
2018-04-18T05:32:15.314Z,11.80
2018-04-18T05:34:42.818Z,11.90
2018-04-18T05:37:11.097Z,11.90
2018-04-18T05:39:39.401Z,11.90
2018-04-18T05:42:06.961Z,11.90
2018-04-18T05:44:34.446Z,11.80
2018-04-18T05:47:01.927Z,11.90
2018-04-18T05:49:29.871Z,11.90
2018-04-18T05:51:57.353Z,12.00
2018-04-18T05:54:25.665Z,12.10
2018-04-18T05:56:53.211Z,12.00
2018-04-18T05:59:21.686Z,12.20
2018-04-18T06:01:49.989Z,12.30
2018-04-18T06:04:17.477Z,12.30
2018-04-18T06:06:44.967Z,12.30
2018-04-18T06:09:12.442Z,12.30
2018-04-18T06:11:40.727Z,12.40
2018-04-18T06:14:08.268Z,12.40
2018-04-18T06:16:36.547Z,12.50
2018-04-18T06:19:04.051Z,12.50
2018-04-18T06:21:31.543Z,12.60
2018-04-18T06:23:59.045Z,12.80
2018-04-18T06:26:26.562Z,12.90
2018-04-18T06:28:54.084Z,13.00
2018-04-18T06:31:21.593Z,13.10
2018-04-18T06:33:49.128Z,13.30
2018-04-18T06:36:16.936Z,13.40
2018-04-18T06:38:44.504Z,13.50
2018-04-18T06:41:12.025Z,13.60
2018-04-18T06:43:39.585Z,13.60
2018-04-18T06:46:07.841Z,13.90
2018-04-18T06:48:35.299Z,13.80
2018-04-18T06:51:02.796Z,13.90
2018-04-18T06:53:30.277Z,14.10
2018-04-18T06:55:57.791Z,14.10
2018-04-18T06:58:26.823Z,14.30
2018-04-18T07:00:54.310Z,14.30
2018-04-18T07:03:21.843Z,14.40
2018-04-18T07:05:50.051Z,14.60
2018-04-18T07:08:17.525Z,14.50
2018-04-18T07:10:45.130Z,14.70
2018-04-18T07:13:12.607Z,14.80
2018-04-18T07:15:40.121Z,14.90
2018-04-18T07:18:08.425Z,15.20
2018-04-18T07:20:35.920Z,15.20
2018-04-18T07:23:03.517Z,15.30
2018-04-18T07:25:31.776Z,15.50
2018-04-18T07:28:00.749Z,15.60
2018-04-18T07:30:28.267Z,15.60
2018-04-18T07:32:55.788Z,15.70
2018-04-18T07:35:24.067Z,15.90
2018-04-18T07:37:52.314Z,16.00
2018-04-18T07:40:19.917Z,16.00
2018-04-18T07:42:48.229Z,16.20
2018-04-18T07:45:15.709Z,16.20
2018-04-18T07:47:43.181Z,16.40
2018-04-18T07:50:10.676Z,16.40
2018-04-18T07:52:38.147Z,16.50
2018-04-18T07:55:05.637Z,16.60
2018-04-18T07:57:33.112Z,16.70
2018-04-18T08:00:01.382Z,16.90
2018-04-18T08:02:28.857Z,16.90
2018-04-18T08:04:57.111Z,17.10
2018-04-18T08:07:24.575Z,17.10
2018-04-18T08:09:53.564Z,17.30
2018-04-18T08:12:22.556Z,17.40
2018-04-18T08:14:50.035Z,17.40
2018-04-18T08:17:18.405Z,17.60
2018-04-18T08:19:45.872Z,17.60
2018-04-18T08:22:14.128Z,17.80
2018-04-18T08:24:41.633Z,17.80
2018-04-18T08:27:09.137Z,17.90
2018-04-18T08:29:36.618Z,18.00
2018-04-18T08:32:04.868Z,18.20
2018-04-18T08:34:32.345Z,18.10
2018-04-18T08:36:59.833Z,18.20
2018-04-18T08:39:27.341Z,18.40
2018-04-18T08:41:54.855Z,18.40
2018-04-18T08:44:22.377Z,18.60
2018-04-18T08:46:50.661Z,18.80
2018-04-18T08:49:18.885Z,18.80
2018-04-18T08:51:46.400Z,18.80
2018-04-18T08:54:14.629Z,19.10
2018-04-18T08:56:42.115Z,19.10
2018-04-18T08:59:09.677Z,19.20
2018-04-18T09:01:37.183Z,19.30
2018-04-18T09:04:04.656Z,19.40
2018-04-18T09:06:32.291Z,19.50
2018-04-18T09:08:59.759Z,19.50
2018-04-18T09:11:27.247Z,19.70
2018-04-18T09:13:54.749Z,19.80
2018-04-18T09:16:22.328Z,19.90
2018-04-18T09:18:49.795Z,20.00
2018-04-18T09:21:17.290Z,20.10
2018-04-18T09:23:45.538Z,20.20
2018-04-18T09:26:13.022Z,20.20
2018-04-18T09:28:40.510Z,20.30
2018-04-18T09:31:08.012Z,20.40
2018-04-18T09:33:35.524Z,20.50
2018-04-18T09:36:03.831Z,20.60
2018-04-18T09:38:31.297Z,20.60
2018-04-18T09:40:58.800Z,20.80
2018-04-18T09:43:27.034Z,20.80
2018-04-18T09:45:54.522Z,20.80
2018-04-18T09:48:21.996Z,20.90
2018-04-18T09:50:50.256Z,21.00
2018-04-18T09:53:17.744Z,21.00
2018-04-18T09:55:45.297Z,21.10
2018-04-18T09:58:13.544Z,21.30
2018-04-18T10:00:46.824Z,21.30
2018-04-18T10:03:15.274Z,21.30
2018-04-18T10:05:42.789Z,21.40
2018-04-18T10:08:11.028Z,21.60
2018-04-18T10:10:38.518Z,21.60
2018-04-18T10:13:06.761Z,21.80
2018-04-18T10:15:34.248Z,21.70
2018-04-18T10:18:02.555Z,21.80
2018-04-18T10:20:30.124Z,21.80
2018-04-18T10:22:57.637Z,21.90
2018-04-18T10:25:25.106Z,21.90
2018-04-18T10:27:53.368Z,22.10
2018-04-18T10:30:20.853Z,22.10
2018-04-18T10:32:49.100Z,22.20
2018-04-18T10:35:16.626Z,22.20
2018-04-18T10:37:44.128Z,22.30
2018-04-18T10:40:12.363Z,22.50
2018-04-18T10:42:39.852Z,22.50
2018-04-18T10:45:07.352Z,22.60
2018-04-18T10:47:34.860Z,22.70
2018-04-18T10:50:02.345Z,22.80
2018-04-18T10:52:30.618Z,23.00
2018-04-18T10:54:58.872Z,23.00
2018-04-18T10:57:26.345Z,23.00
2018-04-18T10:59:54.643Z,23.10
2018-04-18T11:02:22.129Z,23.10
2018-04-18T11:04:49.640Z,23.20
2018-04-18T11:07:17.891Z,23.40
2018-04-18T11:09:45.384Z,23.30
2018-04-18T11:12:13.644Z,23.40
2018-04-18T11:14:41.891Z,23.50
2018-04-18T11:17:09.383Z,23.50
2018-04-18T11:19:37.622Z,23.70
2018-04-18T11:22:05.212Z,23.60
2018-04-18T11:24:33.468Z,23.80
2018-04-18T11:27:01.016Z,23.80
2018-04-18T11:29:28.445Z,23.80
2018-04-18T11:31:55.972Z,23.80
2018-04-18T11:34:24.226Z,24.00
2018-04-18T11:36:51.731Z,24.00
2018-04-18T11:39:19.191Z,24.00
2018-04-18T11:41:46.722Z,24.10
2018-04-18T11:44:14.967Z,24.20
2018-04-18T11:46:42.480Z,24.10
2018-04-18T11:49:09.951Z,24.10
2018-04-18T11:51:37.466Z,24.10
2018-04-18T11:54:05.714Z,24.20
2018-04-18T11:56:33.194Z,24.20
2018-04-18T11:59:01.504Z,24.40
2018-04-18T12:01:29.047Z,24.40
2018-04-18T12:03:56.482Z,24.50
2018-04-18T12:06:24.777Z,24.50
2018-04-18T12:08:52.290Z,24.50
2018-04-18T12:11:19.768Z,24.60
2018-04-18T12:13:47.254Z,24.80
2018-04-18T12:16:14.744Z,24.80
2018-04-18T12:18:42.224Z,24.80
2018-04-18T12:21:09.700Z,24.80
2018-04-18T12:23:37.263Z,24.80
2018-04-18T12:26:05.596Z,24.90
2018-04-18T12:28:33.142Z,24.90
2018-04-18T12:31:00.620Z,24.90
2018-04-18T12:33:28.151Z,25.00
2018-04-18T12:35:55.615Z,25.00
2018-04-18T12:38:23.143Z,25.10
2018-04-18T12:40:51.370Z,25.20
2018-04-18T12:43:18.859Z,25.20
2018-04-18T12:45:46.446Z,25.60
2018-04-18T12:48:13.925Z,25.20
2018-04-18T12:50:41.383Z,25.30
2018-04-18T12:53:08.880Z,25.30
2018-04-18T12:55:36.352Z,25.40
2018-04-18T12:58:04.601Z,25.60
2018-04-18T13:00:32.087Z,25.50
2018-04-18T13:03:00.349Z,25.80
2018-04-18T13:05:27.810Z,25.80
2018-04-18T13:07:55.304Z,25.90
2018-04-18T13:10:22.800Z,26.20
2018-04-18T13:12:50.274Z,26.40
2018-04-18T13:15:17.783Z,26.50
2018-04-18T13:17:45.341Z,26.70
2018-04-18T13:20:12.807Z,26.90
2018-04-18T13:22:40.289Z,27.10
2018-04-18T13:25:07.767Z,27.30
2018-04-18T13:27:35.374Z,27.40
2018-04-18T13:30:02.872Z,27.50
2018-04-18T13:32:30.352Z,27.70
2018-04-18T13:34:58.639Z,28.10
2018-04-18T13:37:26.883Z,28.30
2018-04-18T13:39:54.398Z,28.30
2018-04-18T13:42:21.889Z,28.60
2018-04-18T13:44:49.356Z,28.50
2018-04-18T13:47:16.829Z,28.90
2018-04-18T13:49:45.064Z,29.40
2018-04-18T13:52:12.552Z,29.30
2018-04-18T13:54:40.848Z,30.10
2018-04-18T13:57:08.312Z,30.00
2018-04-18T13:59:36.537Z,30.80
2018-04-18T14:02:04.020Z,30.80
2018-04-18T14:04:31.585Z,31.10
2018-04-18T14:06:59.083Z,31.40
2018-04-18T14:09:26.571Z,31.70
2018-04-18T14:11:54.048Z,31.70
2018-04-18T14:14:21.686Z,31.90
2018-04-18T14:16:49.173Z,32.10
2018-04-18T14:19:16.748Z,32.20
2018-04-18T14:21:45.010Z,32.60
2018-04-18T14:24:12.514Z,32.60
2018-04-18T14:26:40.075Z,33.20
2018-04-18T14:29:08.294Z,33.80
2018-04-18T14:31:35.758Z,33.70
2018-04-18T14:34:03.249Z,33.60
2018-04-18T14:36:30.727Z,33.50
2018-04-18T14:38:58.215Z,33.90
2018-04-18T14:41:25.687Z,33.50
2018-04-18T14:43:53.263Z,33.80
2018-04-18T14:46:21.575Z,34.20
2018-04-18T14:48:49.064Z,34.30
2018-04-18T14:51:16.526Z,34.60
2018-04-18T14:53:44.011Z,34.50
2018-04-18T14:56:12.310Z,35.10
2018-04-18T14:58:39.792Z,35.10
2018-04-18T15:01:07.300Z,35.20
2018-04-18T15:03:35.579Z,35.50
2018-04-18T15:06:03.811Z,35.90
2018-04-18T15:08:31.320Z,35.80
2018-04-18T15:10:59.585Z,36.50
2018-04-18T15:13:27.872Z,36.70
2018-04-18T15:15:56.123Z,37.10
2018-04-18T15:18:23.618Z,37.20
2018-04-18T15:20:51.196Z,37.70
2018-04-18T15:23:18.719Z,38.30
2018-04-18T15:25:46.955Z,39.00
2018-04-18T15:28:14.454Z,39.00
2018-04-18T15:30:42.011Z,39.20
2018-04-18T15:33:10.275Z,39.70
2018-04-18T15:35:38.614Z,40.00
2018-04-18T15:38:06.098Z,39.90
2018-04-18T15:40:33.576Z,40.40
2018-04-18T15:43:01.890Z,40.70
2018-04-18T15:45:29.360Z,40.70
2018-04-18T15:47:56.856Z,40.80
2018-04-18T15:50:24.355Z,41.00
2018-04-18T15:52:51.884Z,41.10
2018-04-18T15:55:20.142Z,41.00
2018-04-18T15:57:47.661Z,41.00
2018-04-18T16:00:15.176Z,41.20
2018-04-18T16:02:43.441Z,40.90
2018-04-18T16:05:13.001Z,40.50
2018-04-18T16:07:40.552Z,40.50
2018-04-18T16:10:08.020Z,39.30
2018-04-18T16:12:35.507Z,38.40
2018-04-18T16:15:02.975Z,36.70
2018-04-18T16:17:30.455Z,35.80
2018-04-18T16:19:58.705Z,34.80
2018-04-18T16:22:26.210Z,34.70
2018-04-18T16:24:53.706Z,34.10
2018-04-18T16:27:21.254Z,33.50
2018-04-18T16:29:48.880Z,32.60
2018-04-18T16:32:16.362Z,32.50
2018-04-18T16:34:43.867Z,32.00
2018-04-18T16:37:12.107Z,31.50
2018-04-18T16:39:39.606Z,31.50
2018-04-18T16:42:07.887Z,31.20
2018-04-18T16:44:36.207Z,30.90
2018-04-18T16:47:03.665Z,30.90
2018-04-18T16:49:31.168Z,30.90
2018-04-18T16:51:59.407Z,30.30
2018-04-18T16:54:26.887Z,30.20
2018-04-18T16:56:54.370Z,30.10
2018-04-18T16:59:22.622Z,29.60
2018-04-18T17:01:50.079Z,29.60
2018-04-18T17:04:17.672Z,29.40
2018-04-18T17:06:45.201Z,29.10
2018-04-18T17:09:12.675Z,29.00
2018-04-18T17:11:40.932Z,28.70
2018-04-18T17:14:08.401Z,28.60
2018-04-18T17:16:36.668Z,28.30
2018-04-18T17:19:04.919Z,28.20
2018-04-18T17:21:32.423Z,28.10
2018-04-18T17:23:59.900Z,28.00
2018-04-18T17:26:27.400Z,27.90
2018-04-18T17:28:54.917Z,27.70
2018-04-18T17:31:22.423Z,27.60
2018-04-18T17:33:49.881Z,27.50
2018-04-18T17:36:17.389Z,27.30
2018-04-18T17:38:44.861Z,27.20
2018-04-18T17:41:12.339Z,27.20
2018-04-18T17:43:39.811Z,27.10
2018-04-18T17:46:07.296Z,27.10
2018-04-18T17:48:35.568Z,26.80
2018-04-18T17:51:03.063Z,26.80
2018-04-18T17:53:30.537Z,26.80
2018-04-18T17:55:58.064Z,26.60
2018-04-18T17:58:25.533Z,26.70
2018-04-18T18:00:53.027Z,26.70
2018-04-18T18:03:21.269Z,26.40
2018-04-18T18:05:48.752Z,26.40
2018-04-18T18:08:16.254Z,26.40
2018-04-18T18:10:43.715Z,26.30
2018-04-18T18:13:11.213Z,26.20
2018-04-18T18:15:38.693Z,26.00
2018-04-18T18:18:06.184Z,26.00
2018-04-18T18:20:33.729Z,25.90
2018-04-18T18:23:01.994Z,25.60
2018-04-18T18:25:30.252Z,25.60
2018-04-18T18:27:57.767Z,25.50
2018-04-18T18:30:25.231Z,25.50
2018-04-18T18:32:52.724Z,25.40
2018-04-18T18:35:20.198Z,25.30
2018-04-18T18:37:47.716Z,25.20
2018-04-18T18:40:15.177Z,25.10
2018-04-18T18:42:42.736Z,24.90
2018-04-18T18:45:10.204Z,24.90
2018-04-18T18:47:37.694Z,24.90
2018-04-18T18:50:05.954Z,24.60
2018-04-18T18:52:33.462Z,24.60
2018-04-18T18:55:00.940Z,24.50
2018-04-18T18:57:28.400Z,24.50
2018-04-18T18:59:55.946Z,24.40
2018-04-18T19:02:24.145Z,24.20
2018-04-18T19:04:51.736Z,24.20
2018-04-18T19:07:19.307Z,24.10
2018-04-18T19:09:47.623Z,24.00
2018-04-18T19:12:15.165Z,24.00
2018-04-18T19:14:42.651Z,24.00
2018-04-18T19:17:10.117Z,23.90
2018-04-18T19:19:37.613Z,23.80
2018-04-18T19:22:05.861Z,23.70
2018-04-18T19:24:33.369Z,23.60
2018-04-18T19:27:00.900Z,23.60
2018-04-18T19:29:29.158Z,23.50
2018-04-18T19:31:56.643Z,23.40
2018-04-18T19:34:24.987Z,23.30
2018-04-18T19:36:52.439Z,23.20
2018-04-18T19:39:19.958Z,23.20
2018-04-18T19:41:47.513Z,23.10
2018-04-18T19:46:49.044Z,22.90
2018-04-18T19:49:17.292Z,22.60
2018-04-18T19:51:44.763Z,22.50
2018-04-18T19:54:12.275Z,22.50
2018-04-18T19:56:39.742Z,22.40
2018-04-18T19:59:07.239Z,22.30
2018-04-18T20:01:34.745Z,22.20
2018-04-18T20:04:02.304Z,22.20
2018-04-18T20:06:29.767Z,22.10
2018-04-18T20:08:57.308Z,22.00
2018-04-18T20:11:24.838Z,22.00
2018-04-18T20:13:53.154Z,21.80
2018-04-18T20:16:20.624Z,21.80
2018-04-18T20:21:22.124Z,21.60
2018-04-18T20:23:49.747Z,21.50
2018-04-18T20:26:17.407Z,21.50
2018-04-18T20:28:44.910Z,21.40
2018-04-18T20:31:12.368Z,21.40
2018-04-18T20:33:39.959Z,21.30
2018-04-18T20:36:07.514Z,21.10
2018-04-18T20:38:35.778Z,21.10
2018-04-18T20:41:04.026Z,21.00
2018-04-18T20:43:31.529Z,21.00
2018-04-18T20:45:59.760Z,20.80
2018-04-18T20:48:27.298Z,20.80
2018-04-18T20:50:54.806Z,20.80
2018-04-18T20:53:23.090Z,20.60
2018-04-18T20:55:51.334Z,20.60
2018-04-18T20:58:19.031Z,20.50
2018-04-18T21:00:47.268Z,20.50
2018-04-18T21:03:14.859Z,20.40
2018-04-18T21:05:43.126Z,20.30
2018-04-18T21:08:11.380Z,20.30
2018-04-18T21:10:38.895Z,20.30
2018-04-18T21:13:06.366Z,20.30
2018-04-18T21:15:33.860Z,20.20
2018-04-18T21:18:01.352Z,20.10
2018-04-18T21:23:03.641Z,20.00
2018-04-18T21:25:31.145Z,20.00
2018-04-18T21:27:58.617Z,19.90
2018-04-18T21:30:26.194Z,19.90
2018-04-18T21:32:54.428Z,19.80
2018-04-18T21:35:21.941Z,19.80
2018-04-18T21:37:50.184Z,19.70
2018-04-18T21:40:17.692Z,19.70
2018-04-18T21:42:45.184Z,19.70
2018-04-18T21:45:12.691Z,19.60
2018-04-18T21:47:40.975Z,19.60
2018-04-18T21:50:08.476Z,19.60
2018-04-18T21:52:35.947Z,19.60
2018-04-18T21:55:03.515Z,19.50
2018-04-18T21:57:30.944Z,19.40
2018-04-18T21:59:58.452Z,19.40
2018-04-18T22:02:26.703Z,19.20
2018-04-18T22:04:54.201Z,19.10
2018-04-18T22:07:21.723Z,19.10
2018-04-18T22:09:49.223Z,19.10
2018-04-18T22:12:16.700Z,19.00
2018-04-18T22:14:44.382Z,19.00
2018-04-18T22:17:11.911Z,18.90
2018-04-18T22:19:40.132Z,18.80
2018-04-18T22:22:07.617Z,18.80
2018-04-18T22:24:35.942Z,18.70
2018-04-18T22:27:03.422Z,18.70
2018-04-18T22:29:30.949Z,18.70
2018-04-18T22:31:58.423Z,18.60
2018-04-18T22:34:25.943Z,18.60
2018-04-18T22:36:53.425Z,18.50
2018-04-18T22:39:21.049Z,18.50
2018-04-18T22:41:48.531Z,18.40
2018-04-18T22:44:16.030Z,18.40
2018-04-18T22:46:43.498Z,18.30
2018-04-18T22:49:11.796Z,18.20
2018-04-18T22:51:39.271Z,18.20
2018-04-18T22:54:06.759Z,18.20
2018-04-18T22:56:34.293Z,18.10
2018-04-18T22:59:01.789Z,18.10
2018-04-18T23:01:29.265Z,18.10
2018-04-18T23:03:57.573Z,17.90
2018-04-18T23:06:25.051Z,17.90
2018-04-18T23:08:52.574Z,17.90
2018-04-18T23:11:20.053Z,17.80
2018-04-18T23:13:47.546Z,17.70
2018-04-18T23:16:15.017Z,17.60
2018-04-18T23:18:43.245Z,17.50
2018-04-18T23:21:10.752Z,17.50
2018-04-18T23:23:38.212Z,17.50
2018-04-18T23:26:06.467Z,17.50
2018-04-18T23:28:33.948Z,17.50
2018-04-18T23:31:02.201Z,17.50
2018-04-18T23:33:29.710Z,17.40
2018-04-18T23:35:57.192Z,17.40
2018-04-18T23:38:24.708Z,17.40
2018-04-18T23:40:52.960Z,17.30
2018-04-18T23:43:20.485Z,17.30
2018-04-18T23:45:47.999Z,17.30
2018-04-18T23:48:16.238Z,17.20
2018-04-18T23:50:44.269Z,17.20
2018-04-18T23:53:11.736Z,17.20
2018-04-18T23:55:39.231Z,17.20
2018-04-18T23:58:06.742Z,17.20
